createdAt,value
2023-02-11T00:02:01.644Z,33.80
2023-02-11T00:04:34.205Z,34.40
2023-02-11T00:07:06.442Z,33.50
2023-02-11T00:09:38.601Z,32.50
2023-02-11T00:12:10.914Z,32.90
2023-02-11T00:14:43.350Z,33.80
2023-02-11T00:17:15.856Z,31.30
2023-02-11T00:19:50.354Z,30.00
2023-02-11T00:22:22.726Z,29.30
2023-02-11T00:24:55.017Z,28.90
2023-02-11T00:27:27.523Z,29.60
2023-02-11T00:30:02.405Z,27.20
2023-02-11T00:32:36.568Z,26.60
2023-02-11T00:35:11.454Z,28.10
2023-02-11T00:37:44.630Z,26.50
2023-02-11T00:40:16.914Z,22.90
2023-02-11T00:42:49.254Z,27.00
2023-02-11T00:45:22.580Z,27.80
2023-02-11T00:47:54.694Z,28.40
2023-02-11T00:50:27.170Z,29.10
2023-02-11T00:53:01.439Z,29.00
2023-02-11T00:55:35.765Z,30.70
2023-02-11T00:58:07.965Z,30.00
2023-02-11T01:00:41.525Z,29.10
2023-02-11T01:03:13.682Z,30.20
2023-02-11T01:05:46.081Z,28.50
2023-02-11T01:08:18.388Z,26.80
2023-02-11T01:10:57.219Z,30.40
2023-02-11T01:13:30.261Z,29.90
2023-02-11T01:16:02.718Z,29.20
2023-02-11T01:18:35.415Z,28.10
2023-02-11T01:21:08.963Z,29.20
2023-02-11T01:23:41.239Z,28.90
2023-02-11T01:26:13.614Z,27.60
2023-02-11T01:28:46.189Z,28.90
2023-02-11T01:31:18.691Z,25.40
2023-02-11T01:33:51.017Z,25.30
2023-02-11T01:36:23.147Z,27.10
2023-02-11T01:38:55.679Z,26.70
2023-02-11T01:41:28.240Z,23.90
2023-02-11T01:44:29.659Z,21.00
2023-02-11T01:47:04.905Z,21.40
2023-02-11T01:49:39.885Z,20.30
2023-02-11T01:52:15.784Z,21.00
2023-02-11T01:55:10.080Z,21.70
2023-02-11T01:57:46.597Z,23.00
2023-02-11T02:02:59.193Z,20.60
2023-02-11T02:05:37.407Z,23.00
2023-02-11T02:08:15.828Z,20.40
2023-02-11T02:10:54.013Z,20.00
2023-02-11T02:13:27.154Z,21.80
2023-02-11T02:16:01.242Z,23.30
2023-02-11T02:18:51.201Z,21.40
2023-02-11T02:22:10.878Z,22.50
2023-02-11T02:27:38.896Z,21.10
2023-02-11T02:30:47.941Z,20.50
2023-02-11T02:33:35.461Z,21.80
2023-02-11T02:36:16.113Z,24.60
2023-02-11T02:38:54.421Z,25.10
2023-02-11T02:41:29.981Z,23.70
2023-02-11T02:44:02.336Z,21.50
2023-02-11T02:46:36.516Z,22.50
2023-02-11T02:49:16.198Z,21.50
2023-02-11T02:52:15.820Z,21.40
2023-02-11T02:55:13.018Z,23.50
2023-02-11T02:58:01.652Z,21.30
2023-02-11T03:00:44.334Z,23.40
2023-02-11T03:03:31.422Z,23.30
2023-02-11T03:06:06.726Z,24.40
2023-02-11T03:08:44.930Z,26.20
2023-02-11T03:11:20.822Z,25.60
2023-02-11T03:13:55.177Z,27.50
2023-02-11T03:16:29.171Z,24.90
2023-02-11T03:19:05.205Z,26.20
2023-02-11T03:21:42.639Z,26.00
2023-02-11T03:24:18.612Z,24.10
2023-02-11T03:26:53.862Z,25.50
2023-02-11T03:29:36.206Z,36.00
2023-02-11T03:32:16.397Z,35.10
2023-02-11T03:34:54.328Z,27.30
2023-02-11T03:37:30.157Z,25.90
2023-02-11T03:40:06.467Z,25.30
2023-02-11T03:42:42.241Z,24.50
2023-02-11T03:45:18.678Z,24.40
2023-02-11T03:50:27.861Z,19.00
2023-02-11T03:53:03.125Z,21.30
2023-02-11T03:55:40.593Z,24.80
2023-02-11T03:58:13.443Z,23.40
2023-02-11T04:00:46.468Z,21.30
2023-02-11T04:03:19.327Z,22.50
2023-02-11T04:05:52.423Z,23.90
2023-02-11T04:08:24.792Z,23.50
2023-02-11T04:10:56.859Z,20.40
2023-02-11T04:13:29.159Z,22.80
2023-02-11T04:16:01.370Z,22.10
2023-02-11T04:18:33.571Z,27.10
2023-02-11T04:21:05.808Z,24.00
2023-02-11T04:23:38.346Z,24.00
2023-02-11T04:26:10.477Z,24.30
2023-02-11T04:28:42.830Z,22.00
2023-02-11T04:31:15.070Z,23.00
2023-02-11T04:33:48.102Z,24.80
2023-02-11T04:36:20.230Z,22.00
2023-02-11T04:38:52.558Z,20.60
2023-02-11T04:41:24.635Z,23.80
2023-02-11T04:43:56.794Z,21.80
2023-02-11T04:46:29.032Z,24.40
2023-02-11T04:49:01.358Z,19.00
2023-02-11T04:51:34.454Z,21.20
2023-02-11T04:54:06.842Z,31.70
2023-02-11T04:56:39.003Z,28.70
2023-02-11T04:59:12.041Z,33.70
2023-02-11T05:01:44.747Z,27.10
2023-02-11T05:04:17.391Z,27.30
2023-02-11T05:06:49.772Z,23.60
2023-02-11T05:09:22.367Z,37.50
2023-02-11T05:11:54.803Z,39.40
2023-02-11T05:14:27.079Z,28.50
2023-02-11T05:16:59.201Z,30.40
2023-02-11T05:19:32.557Z,20.10
2023-02-11T05:22:05.055Z,23.90
2023-02-11T05:24:37.458Z,27.20
2023-02-11T05:27:09.672Z,24.80
2023-02-11T05:29:41.987Z,23.70
2023-02-11T05:32:14.391Z,23.30
2023-02-11T05:34:46.931Z,24.50
2023-02-11T05:37:19.580Z,20.80
2023-02-11T05:39:52.301Z,19.80
2023-02-11T05:42:24.381Z,21.20
2023-02-11T05:44:56.436Z,20.30
2023-02-11T05:47:29.020Z,25.60
2023-02-11T05:50:01.754Z,22.50
2023-02-11T05:52:34.272Z,23.00
2023-02-11T05:55:07.836Z,23.10
2023-02-11T05:57:40.190Z,21.90
2023-02-11T06:00:14.930Z,23.10
2023-02-11T06:02:47.248Z,27.80
2023-02-11T06:05:20.400Z,22.00
2023-02-11T06:07:52.578Z,20.80
2023-02-11T06:10:25.001Z,20.00
2023-02-11T06:12:57.148Z,20.70
2023-02-11T06:15:29.570Z,20.40
2023-02-11T06:18:01.782Z,21.60
2023-02-11T06:20:34.111Z,20.00
2023-02-11T06:23:06.221Z,21.30
2023-02-11T06:25:38.658Z,20.40
2023-02-11T06:28:11.623Z,20.20
2023-02-11T06:30:43.991Z,21.90
2023-02-11T06:33:16.913Z,22.20
2023-02-11T06:35:49.444Z,21.20
2023-02-11T06:38:24.144Z,21.20
2023-02-11T06:40:56.426Z,19.30
2023-02-11T06:43:28.777Z,18.80
2023-02-11T06:46:01.471Z,19.80
2023-02-11T06:48:34.066Z,19.90
2023-02-11T06:51:08.364Z,19.40
2023-02-11T06:53:42.348Z,20.60
2023-02-11T06:56:16.981Z,22.40
2023-02-11T06:58:49.209Z,23.70
2023-02-11T07:01:21.483Z,27.90
2023-02-11T07:03:54.820Z,26.40
2023-02-11T07:06:28.543Z,29.20
2023-02-11T07:09:00.797Z,19.50
2023-02-11T07:11:33.776Z,22.40
2023-02-11T07:14:09.525Z,22.40
2023-02-11T07:16:42.173Z,24.90
2023-02-11T07:19:14.567Z,26.40
2023-02-11T07:21:46.772Z,39.10
2023-02-11T07:24:18.933Z,32.50
2023-02-11T07:26:51.514Z,31.60
2023-02-11T07:29:23.915Z,33.40
2023-02-11T07:31:56.432Z,32.70
2023-02-11T07:34:28.945Z,28.70
2023-02-11T07:37:01.213Z,27.20
2023-02-11T07:39:33.597Z,34.20
2023-02-11T07:42:10.563Z,44.00
2023-02-11T07:44:44.668Z,33.70
2023-02-11T07:47:17.240Z,33.20
2023-02-11T07:49:51.158Z,29.00
2023-02-11T07:52:24.686Z,20.90
2023-02-11T07:54:57.959Z,22.90
2023-02-11T07:57:30.807Z,25.50
2023-02-11T08:00:03.132Z,19.20
2023-02-11T08:02:43.002Z,18.10
2023-02-11T08:05:15.423Z,18.80
2023-02-11T08:07:47.598Z,18.80
2023-02-11T08:10:19.753Z,19.00
2023-02-11T08:12:51.948Z,19.00
2023-02-11T08:15:24.349Z,19.50
2023-02-11T08:17:56.682Z,19.20
2023-02-11T08:20:29.755Z,20.20
2023-02-11T08:23:02.274Z,19.60
2023-02-11T08:25:35.528Z,18.90
2023-02-11T08:28:09.434Z,19.00
2023-02-11T08:30:41.733Z,17.90
2023-02-11T08:33:13.900Z,20.40
2023-02-11T08:35:46.678Z,19.00
2023-02-11T08:38:19.053Z,18.60
2023-02-11T08:40:51.522Z,20.60
2023-02-11T08:43:24.920Z,19.30
2023-02-11T08:45:59.521Z,20.20
2023-02-11T08:48:34.421Z,21.30
2023-02-11T08:51:11.290Z,17.60
2023-02-11T08:53:43.624Z,21.50
2023-02-11T08:56:17.540Z,18.80
2023-02-11T08:58:50.639Z,18.90
2023-02-11T09:01:26.245Z,19.20
2023-02-11T09:03:59.598Z,20.40
2023-02-11T09:06:32.081Z,21.40
2023-02-11T09:09:04.658Z,17.60
2023-02-11T09:11:38.199Z,21.30
2023-02-11T09:14:16.639Z,19.70
2023-02-11T09:16:49.398Z,20.80
2023-02-11T09:19:23.234Z,21.00
2023-02-11T09:21:55.985Z,24.50
2023-02-11T09:24:29.017Z,24.40
2023-02-11T09:27:01.363Z,23.60
2023-02-11T09:29:33.761Z,26.30
2023-02-11T09:32:09.754Z,21.40
2023-02-11T09:34:43.078Z,18.20
2023-02-11T09:37:15.379Z,22.70
2023-02-11T09:39:47.960Z,18.80
2023-02-11T09:42:45.631Z,19.60
2023-02-11T09:45:23.756Z,21.40
2023-02-11T09:48:00.516Z,22.40
2023-02-11T09:50:37.118Z,22.10
2023-02-11T09:53:16.320Z,21.80
2023-02-11T09:55:55.965Z,21.70
2023-02-11T09:58:32.095Z,21.20
2023-02-11T10:01:10.476Z,20.60
2023-02-11T10:04:00.688Z,23.10
2023-02-11T10:06:40.902Z,21.60
2023-02-11T10:09:33.324Z,21.70
2023-02-11T10:12:23.641Z,20.50
2023-02-11T10:15:23.790Z,22.30
2023-02-11T10:18:12.089Z,20.20
2023-02-11T10:20:58.696Z,19.00
2023-02-11T10:23:37.517Z,19.80
2023-02-11T10:26:16.342Z,20.60
2023-02-11T10:28:51.083Z,20.50
2023-02-11T10:31:26.445Z,20.20
2023-02-11T10:34:03.796Z,21.00
2023-02-11T10:36:38.901Z,20.30
2023-02-11T10:39:16.215Z,21.20
2023-02-11T10:41:52.583Z,22.40
2023-02-11T10:44:29.132Z,18.90
2023-02-11T10:47:06.395Z,19.10
2023-02-11T10:49:41.187Z,16.90
2023-02-11T10:52:23.948Z,19.60
2023-02-11T10:55:06.634Z,19.30
2023-02-11T10:57:44.811Z,16.60
2023-02-11T11:00:41.311Z,20.30
2023-02-11T11:03:22.654Z,19.50
2023-02-11T11:05:58.560Z,21.50
2023-02-11T11:08:43.823Z,21.20
2023-02-11T11:11:19.464Z,21.90
2023-02-11T11:14:01.230Z,21.90
2023-02-11T11:16:36.555Z,22.70
2023-02-11T11:19:26.465Z,19.60
2023-02-11T11:22:00.791Z,22.50
2023-02-11T11:24:42.893Z,22.40
2023-02-11T11:27:22.955Z,21.40
2023-02-11T11:29:58.345Z,22.10
2023-02-11T11:32:33.687Z,21.00
2023-02-11T11:35:22.600Z,22.20
2023-02-11T11:38:01.735Z,21.60
2023-02-11T11:40:35.801Z,20.40
2023-02-11T11:43:23.240Z,20.30
2023-02-11T11:46:03.009Z,20.40
2023-02-11T11:48:39.613Z,22.10
2023-02-11T11:51:14.903Z,24.50
2023-02-11T11:53:54.737Z,24.00
2023-02-11T11:56:30.252Z,27.30
2023-02-11T11:59:12.320Z,24.70
2023-02-11T12:04:40.586Z,24.40
2023-02-11T12:07:26.077Z,22.70
2023-02-11T12:10:26.702Z,23.00
2023-02-11T12:13:08.250Z,20.60
2023-02-11T12:15:50.997Z,20.50
2023-02-11T12:18:45.545Z,19.60
2023-02-11T12:21:31.005Z,18.90
2023-02-11T12:24:17.512Z,19.90
2023-02-11T12:26:57.905Z,16.50
2023-02-11T12:29:50.105Z,18.50
2023-02-11T12:32:36.646Z,18.00
2023-02-11T12:35:24.685Z,15.40
2023-02-11T12:38:21.818Z,18.50
2023-02-11T12:41:10.464Z,18.00
2023-02-11T12:43:45.583Z,18.60
2023-02-11T12:46:44.682Z,18.80
2023-02-11T12:49:34.709Z,15.10
2023-02-11T12:52:29.444Z,21.00
2023-02-11T12:55:09.370Z,26.70
2023-02-11T12:57:45.810Z,29.10
2023-02-11T13:00:22.457Z,21.50
2023-02-11T13:03:01.599Z,19.40
2023-02-11T13:05:40.847Z,21.10
2023-02-11T13:08:17.404Z,17.90
2023-02-11T13:10:54.349Z,20.40
2023-02-11T13:13:31.282Z,19.30
2023-02-11T13:16:08.039Z,21.20
2023-02-11T13:18:51.006Z,21.80
2023-02-11T13:21:37.889Z,18.40
2023-02-11T13:24:20.925Z,19.80
2023-02-11T13:27:02.555Z,18.70
2023-02-11T13:29:44.931Z,20.10
2023-02-11T13:35:00.537Z,20.90
2023-02-11T13:37:37.945Z,18.40
2023-02-11T13:40:24.928Z,19.50
2023-02-11T13:43:00.109Z,19.00
2023-02-11T13:45:37.192Z,20.60
2023-02-11T13:48:21.492Z,19.40
2023-02-11T13:50:57.379Z,20.30
2023-02-11T13:53:30.758Z,19.20
2023-02-11T13:56:11.608Z,23.00
2023-02-11T13:58:51.980Z,20.50
2023-02-11T14:02:16.374Z,22.00
2023-02-11T14:05:38.091Z,23.30
2023-02-11T14:08:43.136Z,22.40
2023-02-11T14:11:49.131Z,23.90
2023-02-11T14:14:28.093Z,24.60
2023-02-11T14:17:31.225Z,20.60
2023-02-11T14:20:27.591Z,21.50
2023-02-11T14:23:00.296Z,24.90
2023-02-11T14:25:33.266Z,20.80
2023-02-11T14:28:16.410Z,22.40
2023-02-11T14:31:05.212Z,21.90
2023-02-11T14:34:14.574Z,25.80
2023-02-11T14:37:05.194Z,31.60
2023-02-11T14:39:52.832Z,30.80
2023-02-11T14:42:28.422Z,26.30
2023-02-11T14:45:05.816Z,31.30
2023-02-11T14:47:46.668Z,29.60
2023-02-11T14:50:24.350Z,24.60
2023-02-11T14:53:00.217Z,28.50
2023-02-11T14:55:37.379Z,26.90
2023-02-11T14:58:17.886Z,20.40
2023-02-11T15:00:57.484Z,24.60
2023-02-11T15:03:37.702Z,21.00
2023-02-11T15:06:18.553Z,19.30
2023-02-11T15:08:54.713Z,20.50
2023-02-11T15:11:30.116Z,17.20
2023-02-11T15:14:09.297Z,21.30
2023-02-11T15:16:46.899Z,21.80
2023-02-11T15:19:26.870Z,20.20
2023-02-11T15:21:59.776Z,19.10
2023-02-11T15:24:35.151Z,19.10
2023-02-11T15:27:15.583Z,20.80
2023-02-11T15:29:50.830Z,17.30
2023-02-11T15:32:26.719Z,17.50
2023-02-11T15:34:59.235Z,18.10
2023-02-11T15:37:32.418Z,16.80
2023-02-11T15:40:19.003Z,18.30
2023-02-11T15:42:59.356Z,17.70
2023-02-11T15:45:35.051Z,17.90
2023-02-11T15:48:15.353Z,19.00
2023-02-11T15:50:55.088Z,23.30
2023-02-11T15:53:32.673Z,27.90
2023-02-11T15:56:11.410Z,16.60
2023-02-11T15:58:46.239Z,13.00
2023-02-11T16:01:19.064Z,13.10
2023-02-11T16:03:54.122Z,12.80
2023-02-11T16:06:29.541Z,19.70
2023-02-11T16:09:05.863Z,16.50
2023-02-11T16:11:55.116Z,14.00
2023-02-11T16:14:32.799Z,16.30
2023-02-11T16:17:10.522Z,13.40
2023-02-11T16:19:49.014Z,14.00
2023-02-11T16:22:26.386Z,13.50
2023-02-11T16:25:01.051Z,15.70
2023-02-11T16:27:39.287Z,17.30
2023-02-11T16:30:29.271Z,16.70
2023-02-11T16:33:01.820Z,14.20
2023-02-11T16:35:34.007Z,19.90
2023-02-11T16:38:06.572Z,17.40
2023-02-11T16:40:38.990Z,17.10
2023-02-11T16:43:11.985Z,17.40
2023-02-11T16:45:44.920Z,15.90
2023-02-11T16:48:20.369Z,16.30
2023-02-11T16:50:53.727Z,14.60
2023-02-11T16:53:27.251Z,14.40
2023-02-11T16:55:59.379Z,15.40
2023-02-11T16:58:32.121Z,15.70
2023-02-11T17:01:05.432Z,16.30
2023-02-11T17:03:40.731Z,16.90
2023-02-11T17:06:14.637Z,16.30
2023-02-11T17:08:47.967Z,14.70
2023-02-11T17:11:20.415Z,14.50
2023-02-11T17:13:52.664Z,15.20
2023-02-11T17:16:28.054Z,17.10
2023-02-11T17:19:00.263Z,18.90
2023-02-11T17:21:32.634Z,17.80
2023-02-11T17:24:05.048Z,18.80
2023-02-11T17:26:37.654Z,17.50
2023-02-11T17:29:11.656Z,15.60
2023-02-11T17:31:44.693Z,13.70
2023-02-11T17:34:18.843Z,16.10
2023-02-11T17:36:52.312Z,15.20
2023-02-11T17:39:24.732Z,16.60
2023-02-11T17:41:57.004Z,16.00
2023-02-11T17:44:30.688Z,18.40
2023-02-11T17:47:03.059Z,17.20
2023-02-11T17:49:35.356Z,16.30
2023-02-11T17:52:07.848Z,15.80
2023-02-11T17:54:40.972Z,16.00
2023-02-11T17:57:15.200Z,17.40
2023-02-11T17:59:48.111Z,19.60
2023-02-11T18:02:20.894Z,18.20
2023-02-11T18:04:56.017Z,18.00
2023-02-11T18:07:30.364Z,20.70
2023-02-11T18:10:03.427Z,18.60
2023-02-11T18:12:36.137Z,16.80
2023-02-11T18:15:10.375Z,16.00
2023-02-11T18:17:43.189Z,16.80
2023-02-11T18:20:16.116Z,15.00
2023-02-11T18:22:50.312Z,17.80
2023-02-11T18:25:23.808Z,17.60
2023-02-11T18:27:56.024Z,18.30
2023-02-11T18:30:29.696Z,16.20
2023-02-11T18:33:04.907Z,16.60
2023-02-11T18:35:40.375Z,16.60
2023-02-11T18:38:12.852Z,16.70
2023-02-11T18:40:47.590Z,11.70
2023-02-11T18:43:19.973Z,14.60
2023-02-11T18:45:53.321Z,15.00
2023-02-11T18:48:27.443Z,16.00
2023-02-11T18:50:59.738Z,13.80
2023-02-11T18:53:32.259Z,13.80
2023-02-11T18:56:10.949Z,14.20
2023-02-11T18:58:43.568Z,13.10
2023-02-11T19:01:20.844Z,11.50
2023-02-11T19:03:53.974Z,12.90
2023-02-11T19:06:28.934Z,12.80
2023-02-11T19:09:05.330Z,13.70
2023-02-11T19:11:51.129Z,12.60
2023-02-11T19:14:26.256Z,11.70
2023-02-11T19:17:00.550Z,11.70
2023-02-11T19:19:35.796Z,10.90
2023-02-11T19:22:10.509Z,31.30
2023-02-11T19:24:43.514Z,15.90
2023-02-11T19:27:16.145Z,15.50
2023-02-11T19:29:48.420Z,12.10
2023-02-11T19:32:20.745Z,13.20
2023-02-11T19:34:53.787Z,11.80
2023-02-11T19:37:25.950Z,11.70
2023-02-11T19:39:58.525Z,11.40
2023-02-11T19:42:31.403Z,11.70
2023-02-11T19:45:03.795Z,11.20
2023-02-11T19:47:36.412Z,15.20
2023-02-11T19:50:10.781Z,11.60
2023-02-11T19:52:43.569Z,10.20
2023-02-11T19:55:16.305Z,11.70
2023-02-11T19:57:48.967Z,13.70
2023-02-11T20:00:22.790Z,11.50
2023-02-11T20:02:55.139Z,10.40
2023-02-11T20:05:27.688Z,12.00
2023-02-11T20:08:00.432Z,10.60
2023-02-11T20:10:33.015Z,11.50
2023-02-11T20:13:05.406Z,10.40
2023-02-11T20:15:38.093Z,9.20
2023-02-11T20:18:10.570Z,8.70
2023-02-11T20:20:43.205Z,10.00
2023-02-11T20:23:15.892Z,9.10
2023-02-11T20:25:48.656Z,9.60
2023-02-11T20:28:20.936Z,8.80
2023-02-11T20:30:59.900Z,9.20
2023-02-11T20:33:32.636Z,9.80
2023-02-11T20:36:08.187Z,9.30
2023-02-11T20:38:40.811Z,9.50
2023-02-11T20:41:16.822Z,8.20
2023-02-11T20:43:52.568Z,10.00
2023-02-11T20:46:28.393Z,9.80
2023-02-11T20:49:01.690Z,8.60
2023-02-11T20:51:37.067Z,9.10
2023-02-11T20:54:12.737Z,10.40
2023-02-11T20:56:47.846Z,9.80
2023-02-11T20:59:21.247Z,9.50
2023-02-11T21:01:56.678Z,9.70
2023-02-11T21:04:30.932Z,8.60
2023-02-11T21:07:04.240Z,8.20
2023-02-11T21:09:36.797Z,8.50
2023-02-11T21:12:09.591Z,8.30
2023-02-11T21:14:42.059Z,8.40
2023-02-11T21:17:14.736Z,8.70
2023-02-11T21:19:47.315Z,8.10
2023-02-11T21:22:20.395Z,8.50
2023-02-11T21:24:53.420Z,9.20
2023-02-11T21:27:31.307Z,8.80
2023-02-11T21:30:03.791Z,9.80
2023-02-11T21:32:36.139Z,8.80
2023-02-11T21:35:10.590Z,9.50
2023-02-11T21:37:42.929Z,9.50
2023-02-11T21:40:16.203Z,8.80
2023-02-11T21:42:48.690Z,9.50
2023-02-11T21:45:21.696Z,10.70
2023-02-11T21:47:54.745Z,9.80
2023-02-11T21:50:27.425Z,10.90
2023-02-11T21:52:59.589Z,10.40
2023-02-11T21:55:31.790Z,10.10
2023-02-11T21:58:04.658Z,9.40
2023-02-11T22:00:36.961Z,11.80
2023-02-11T22:03:09.423Z,11.20
2023-02-11T22:05:44.141Z,10.70
2023-02-11T22:08:19.162Z,10.50
2023-02-11T22:10:52.558Z,11.70
2023-02-11T22:13:24.983Z,10.10
2023-02-11T22:16:02.929Z,11.30
2023-02-11T22:18:35.623Z,10.70
2023-02-11T22:21:10.350Z,11.70
2023-02-11T22:23:43.397Z,9.30
2023-02-11T22:26:18.604Z,11.30
2023-02-11T22:28:51.782Z,11.60
2023-02-11T22:31:26.372Z,12.50
2023-02-11T22:33:59.218Z,11.50
2023-02-11T22:36:33.274Z,19.90
2023-02-11T22:39:08.939Z,13.50
2023-02-11T22:41:43.790Z,12.90
2023-02-11T22:44:17.655Z,12.10
2023-02-11T22:46:50.289Z,11.80
2023-02-11T22:49:23.495Z,11.40
2023-02-11T22:51:56.066Z,11.20
2023-02-11T22:54:28.803Z,12.40
2023-02-11T22:57:01.245Z,11.10
2023-02-11T22:59:33.442Z,10.10
2023-02-11T23:02:05.835Z,9.90
2023-02-11T23:04:38.185Z,10.70
2023-02-11T23:07:10.993Z,9.40
2023-02-11T23:09:43.719Z,8.40
2023-02-11T23:12:16.443Z,9.60
2023-02-11T23:14:48.761Z,9.10
2023-02-11T23:17:21.279Z,9.70
2023-02-11T23:19:54.537Z,9.70
2023-02-11T23:22:27.150Z,9.80
2023-02-11T23:24:59.957Z,9.30
2023-02-11T23:27:32.520Z,9.30
2023-02-11T23:30:05.558Z,9.00
2023-02-11T23:32:41.064Z,9.10
2023-02-11T23:35:21.995Z,13.30
2023-02-11T23:37:56.522Z,10.10
2023-02-11T23:40:29.190Z,10.00
2023-02-11T23:43:01.739Z,13.10
2023-02-11T23:45:34.327Z,10.40
2023-02-11T23:48:07.050Z,11.50
2023-02-11T23:50:44.079Z,11.20
2023-02-11T23:53:17.199Z,20.70
2023-02-11T23:55:49.577Z,18.20
2023-02-11T23:58:21.941Z,15.60
